sensor_id;sensor_type;location;lat;lon;timestamp;P1;P2;P0
63915;PMS5003;50094;51.356;-0.196;2023-02-08T00:00:48;7;6;
63915;PMS5003;50094;51.356;-0.196;2023-02-08T00:03:16;10;10;
63915;PMS5003;50094;51.356;-0.196;2023-02-08T00:05:43;10;10;
63915;PMS5003;50094;51.356;-0.196;2023-02-08T00:08:10;8;7;
63915;PMS5003;50094;51.356;-0.196;2023-02-08T00:10:37;9;9;
63915;PMS5003;50094;51.356;-0.196;2023-02-08T00:13:04;12;11;
63915;PMS5003;50094;51.356;-0.196;2023-02-08T00:15:32;12;11;
63915;PMS5003;50094;51.356;-0.196;2023-02-08T00:17:59;9;9;
63915;PMS5003;50094;51.356;-0.196;2023-02-08T00:20:26;10;8;
63915;PMS5003;50094;51.356;-0.196;2023-02-08T00:22:54;14;10;
63915;PMS5003;50094;51.356;-0.196;2023-02-08T00:25:22;13;12;
63915;PMS5003;50094;51.356;-0.196;2023-02-08T00:27:49;11;9;
63915;PMS5003;50094;51.356;-0.196;2023-02-08T00:30:16;9;8;
63915;PMS5003;50094;51.356;-0.196;2023-02-08T00:32:43;15;14;
63915;PMS5003;50094;51.356;-0.196;2023-02-08T00:35:11;10;10;
63915;PMS5003;50094;51.356;-0.196;2023-02-08T00:37:38;16;8;
63915;PMS5003;50094;51.356;-0.196;2023-02-08T00:40:05;12;10;
63915;PMS5003;50094;51.356;-0.196;2023-02-08T00:42:34;13;9;
63915;PMS5003;50094;51.356;-0.196;2023-02-08T00:45:01;13;13;
63915;PMS5003;50094;51.356;-0.196;2023-02-08T00:47:28;7;6;
63915;PMS5003;50094;51.356;-0.196;2023-02-08T00:49:55;11;8;
63915;PMS5003;50094;51.356;-0.196;2023-02-08T00:52:23;14;10;
63915;PMS5003;50094;51.356;-0.196;2023-02-08T00:54:50;9;9;
63915;PMS5003;50094;51.356;-0.196;2023-02-08T00:57:17;14;11;
63915;PMS5003;50094;51.356;-0.196;2023-02-08T00:59:45;20;20;
63915;PMS5003;50094;51.356;-0.196;2023-02-08T01:02:12;12;12;
63915;PMS5003;50094;51.356;-0.196;2023-02-08T01:04:39;12;11;
63915;PMS5003;50094;51.356;-0.196;2023-02-08T01:07:07;13;10;
63915;PMS5003;50094;51.356;-0.196;2023-02-08T01:09:35;13;9;
63915;PMS5003;50094;51.356;-0.196;2023-02-08T01:12:02;12;12;
63915;PMS5003;50094;51.356;-0.196;2023-02-08T01:14:29;13;9;
63915;PMS5003;50094;51.356;-0.196;2023-02-08T01:16:56;12;11;
63915;PMS5003;50094;51.356;-0.196;2023-02-08T01:19:23;10;10;
63915;PMS5003;50094;51.356;-0.196;2023-02-08T01:21:50;14;11;
63915;PMS5003;50094;51.356;-0.196;2023-02-08T01:24:17;13;12;
63915;PMS5003;50094;51.356;-0.196;2023-02-08T01:26:44;17;13;
63915;PMS5003;50094;51.356;-0.196;2023-02-08T01:29:12;15;15;
63915;PMS5003;50094;51.356;-0.196;2023-02-08T01:31:40;14;13;
63915;PMS5003;50094;51.356;-0.196;2023-02-08T01:34:09;16;14;
63915;PMS5003;50094;51.356;-0.196;2023-02-08T01:36:37;14;10;
63915;PMS5003;50094;51.356;-0.196;2023-02-08T01:39:05;17;14;
63915;PMS5003;50094;51.356;-0.196;2023-02-08T01:41:35;16;13;
63915;PMS5003;50094;51.356;-0.196;2023-02-08T01:44:06;11;11;
63915;PMS5003;50094;51.356;-0.196;2023-02-08T01:47:37;9;9;
63915;PMS5003;50094;51.356;-0.196;2023-02-08T01:50:04;14;11;
63915;PMS5003;50094;51.356;-0.196;2023-02-08T01:52:33;13;11;
63915;PMS5003;50094;51.356;-0.196;2023-02-08T01:55:00;11;9;
63915;PMS5003;50094;51.356;-0.196;2023-02-08T01:57:31;8;6;
63915;PMS5003;50094;51.356;-0.196;2023-02-08T01:59:59;15;9;
63915;PMS5003;50094;51.356;-0.196;2023-02-08T02:02:30;11;9;
63915;PMS5003;50094;51.356;-0.196;2023-02-08T02:04:58;13;10;
63915;PMS5003;50094;51.356;-0.196;2023-02-08T02:07:27;10;7;
63915;PMS5003;50094;51.356;-0.196;2023-02-08T02:09:58;7;6;
63915;PMS5003;50094;51.356;-0.196;2023-02-08T02:12:29;11;7;
63915;PMS5003;50094;51.356;-0.196;2023-02-08T02:14:57;8;8;
63915;PMS5003;50094;51.356;-0.196;2023-02-08T02:17:25;9;8;
63915;PMS5003;50094;51.356;-0.196;2023-02-08T02:19:55;10;9;
63915;PMS5003;50094;51.356;-0.196;2023-02-08T02:22:36;13;9;
63915;PMS5003;50094;51.356;-0.196;2023-02-08T02:25:36;8;8;
63915;PMS5003;50094;51.356;-0.196;2023-02-08T02:28:23;10;6;
63915;PMS5003;50094;51.356;-0.196;2023-02-08T02:31:25;8;7;
63915;PMS5003;50094;51.356;-0.196;2023-02-08T02:34:13;8;6;
63915;PMS5003;50094;51.356;-0.196;2023-02-08T02:36:50;11;8;
63915;PMS5003;50094;51.356;-0.196;2023-02-08T02:39:25;8;7;
63915;PMS5003;50094;51.356;-0.196;2023-02-08T02:42:03;13;11;
63915;PMS5003;50094;51.356;-0.196;2023-02-08T02:44:41;6;6;
63915;PMS5003;50094;51.356;-0.196;2023-02-08T02:47:18;6;6;
63915;PMS5003;50094;51.356;-0.196;2023-02-08T02:49:57;10;8;
63915;PMS5003;50094;51.356;-0.196;2023-02-08T02:52:30;10;9;
63915;PMS5003;50094;51.356;-0.196;2023-02-08T02:55:05;8;6;
63915;PMS5003;50094;51.356;-0.196;2023-02-08T02:57:36;5;5;
63915;PMS5003;50094;51.356;-0.196;2023-02-08T03:00:06;4;4;
63915;PMS5003;50094;51.356;-0.196;2023-02-08T03:02:36;8;5;
63915;PMS5003;50094;51.356;-0.196;2023-02-08T03:05:04;7;6;
63915;PMS5003;50094;51.356;-0.196;2023-02-08T03:07:42;6;5;
63915;PMS5003;50094;51.356;-0.196;2023-02-08T03:10:26;8;6;
63915;PMS5003;50094;51.356;-0.196;2023-02-08T03:13:07;5;3;
63915;PMS5003;50094;51.356;-0.196;2023-02-08T03:15:51;8;6;
63915;PMS5003;50094;51.356;-0.196;2023-02-08T03:18:29;5;5;
63915;PMS5003;50094;51.356;-0.196;2023-02-08T03:21:05;5;4;
63915;PMS5003;50094;51.356;-0.196;2023-02-08T03:23:38;9;6;
63915;PMS5003;50094;51.356;-0.196;2023-02-08T03:26:13;9;8;
63915;PMS5003;50094;51.356;-0.196;2023-02-08T03:28:46;5;4;
63915;PMS5003;50094;51.356;-0.196;2023-02-08T03:31:22;8;6;
63915;PMS5003;50094;51.356;-0.196;2023-02-08T03:33:57;5;4;
63915;PMS5003;50094;51.356;-0.196;2023-02-08T03:36:30;6;4;
63915;PMS5003;50094;51.356;-0.196;2023-02-08T03:39:03;7;5;
63915;PMS5003;50094;51.356;-0.196;2023-02-08T03:41:37;4;4;
63915;PMS5003;50094;51.356;-0.196;2023-02-08T03:44:09;4;4;
63915;PMS5003;50094;51.356;-0.196;2023-02-08T03:46:42;6;4;
63915;PMS5003;50094;51.356;-0.196;2023-02-08T03:49:16;10;7;
63915;PMS5003;50094;51.356;-0.196;2023-02-08T03:51:46;9;5;
63915;PMS5003;50094;51.356;-0.196;2023-02-08T03:54:15;8;6;
63915;PMS5003;50094;51.356;-0.196;2023-02-08T03:56:46;6;4;
63915;PMS5003;50094;51.356;-0.196;2023-02-08T03:59:20;4;4;
63915;PMS5003;50094;51.356;-0.196;2023-02-08T04:01:52;6;5;
63915;PMS5003;50094;51.356;-0.196;2023-02-08T04:04:24;7;6;
63915;PMS5003;50094;51.356;-0.196;2023-02-08T04:06:55;6;4;
63915;PMS5003;50094;51.356;-0.196;2023-02-08T04:09:22;6;5;
63915;PMS5003;50094;51.356;-0.196;2023-02-08T04:11:49;3;3;
63915;PMS5003;50094;51.356;-0.196;2023-02-08T04:14:16;5;4;
63915;PMS5003;50094;51.356;-0.196;2023-02-08T04:16:43;5;4;
63915;PMS5003;50094;51.356;-0.196;2023-02-08T04:19:10;4;4;
63915;PMS5003;50094;51.356;-0.196;2023-02-08T04:21:37;2;2;
63915;PMS5003;50094;51.356;-0.196;2023-02-08T04:24:04;6;4;
63915;PMS5003;50094;51.356;-0.196;2023-02-08T04:26:31;7;6;
63915;PMS5003;50094;51.356;-0.196;2023-02-08T04:28:58;4;4;
63915;PMS5003;50094;51.356;-0.196;2023-02-08T04:31:26;8;8;
63915;PMS5003;50094;51.356;-0.196;2023-02-08T04:33:53;8;5;
63915;PMS5003;50094;51.356;-0.196;2023-02-08T04:36:20;4;4;
63915;PMS5003;50094;51.356;-0.196;2023-02-08T04:38:46;3;3;
63915;PMS5003;50094;51.356;-0.196;2023-02-08T04:41:13;5;3;
63915;PMS5003;50094;51.356;-0.196;2023-02-08T04:43:40;5;5;
63915;PMS5003;50094;51.356;-0.196;2023-02-08T04:46:07;4;4;
63915;PMS5003;50094;51.356;-0.196;2023-02-08T04:48:34;5;5;
63915;PMS5003;50094;51.356;-0.196;2023-02-08T04:51:01;6;6;
63915;PMS5003;50094;51.356;-0.196;2023-02-08T04:53:29;8;6;
63915;PMS5003;50094;51.356;-0.196;2023-02-08T04:55:56;5;3;
63915;PMS5003;50094;51.356;-0.196;2023-02-08T04:58:23;2;2;
63915;PMS5003;50094;51.356;-0.196;2023-02-08T05:00:50;2;2;
63915;PMS5003;50094;51.356;-0.196;2023-02-08T05:03:17;5;3;
63915;PMS5003;50094;51.356;-0.196;2023-02-08T05:05:45;5;5;
63915;PMS5003;50094;51.356;-0.196;2023-02-08T05:08:12;7;6;
63915;PMS5003;50094;51.356;-0.196;2023-02-08T05:10:42;6;6;
63915;PMS5003;50094;51.356;-0.196;2023-02-08T05:13:10;4;4;
63915;PMS5003;50094;51.356;-0.196;2023-02-08T05:15:37;4;4;
63915;PMS5003;50094;51.356;-0.196;2023-02-08T05:18:04;11;8;
63915;PMS5003;50094;51.356;-0.196;2023-02-08T05:20:31;7;7;
63915;PMS5003;50094;51.356;-0.196;2023-02-08T05:22:58;13;10;
63915;PMS5003;50094;51.356;-0.196;2023-02-08T05:25:25;13;12;
63915;PMS5003;50094;51.356;-0.196;2023-02-08T05:27:52;11;10;
63915;PMS5003;50094;51.356;-0.196;2023-02-08T05:30:20;8;7;
63915;PMS5003;50094;51.356;-0.196;2023-02-08T05:32:47;5;5;
63915;PMS5003;50094;51.356;-0.196;2023-02-08T05:35:14;4;4;
63915;PMS5003;50094;51.356;-0.196;2023-02-08T05:37:42;7;5;
63915;PMS5003;50094;51.356;-0.196;2023-02-08T05:40:09;6;5;
63915;PMS5003;50094;51.356;-0.196;2023-02-08T05:42:37;3;3;
63915;PMS5003;50094;51.356;-0.196;2023-02-08T05:45:04;6;3;
63915;PMS5003;50094;51.356;-0.196;2023-02-08T05:47:32;4;2;
63915;PMS5003;50094;51.356;-0.196;2023-02-08T05:49:58;3;1;
63915;PMS5003;50094;51.356;-0.196;2023-02-08T05:52:25;3;3;
63915;PMS5003;50094;51.356;-0.196;2023-02-08T05:54:52;2;2;
63915;PMS5003;50094;51.356;-0.196;2023-02-08T05:57:19;3;3;
63915;PMS5003;50094;51.356;-0.196;2023-02-08T05:59:46;4;3;
63915;PMS5003;50094;51.356;-0.196;2023-02-08T06:02:13;4;3;
63915;PMS5003;50094;51.356;-0.196;2023-02-08T06:04:41;5;2;
63915;PMS5003;50094;51.356;-0.196;2023-02-08T06:07:08;3;3;
63915;PMS5003;50094;51.356;-0.196;2023-02-08T06:09:35;4;4;
63915;PMS5003;50094;51.356;-0.196;2023-02-08T06:12:02;4;4;
63915;PMS5003;50094;51.356;-0.196;2023-02-08T06:14:29;2;2;
63915;PMS5003;50094;51.356;-0.196;2023-02-08T06:16:56;8;4;
63915;PMS5003;50094;51.356;-0.196;2023-02-08T06:19:23;3;3;
63915;PMS5003;50094;51.356;-0.196;2023-02-08T06:21:50;5;3;
63915;PMS5003;50094;51.356;-0.196;2023-02-08T06:24:17;3;3;
63915;PMS5003;50094;51.356;-0.196;2023-02-08T06:26:44;2;2;
63915;PMS5003;50094;51.356;-0.196;2023-02-08T06:29:11;3;3;
63915;PMS5003;50094;51.356;-0.196;2023-02-08T06:31:38;3;3;
63915;PMS5003;50094;51.356;-0.196;2023-02-08T06:34:05;3;1;
63915;PMS5003;50094;51.356;-0.196;2023-02-08T06:36:32;3;3;
63915;PMS5003;50094;51.356;-0.196;2023-02-08T06:38:59;5;4;
63915;PMS5003;50094;51.356;-0.196;2023-02-08T06:41:26;4;3;
63915;PMS5003;50094;51.356;-0.196;2023-02-08T06:43:53;7;4;
63915;PMS5003;50094;51.356;-0.196;2023-02-08T06:46:20;5;3;
63915;PMS5003;50094;51.356;-0.196;2023-02-08T06:48:47;3;3;
63915;PMS5003;50094;51.356;-0.196;2023-02-08T06:51:14;0;0;
63915;PMS5003;50094;51.356;-0.196;2023-02-08T06:53:41;5;2;
63915;PMS5003;50094;51.356;-0.196;2023-02-08T06:56:08;4;4;
63915;PMS5003;50094;51.356;-0.196;2023-02-08T06:58:35;3;3;
63915;PMS5003;50094;51.356;-0.196;2023-02-08T07:01:02;3;3;
63915;PMS5003;50094;51.356;-0.196;2023-02-08T07:03:29;5;3;
63915;PMS5003;50094;51.356;-0.196;2023-02-08T07:05:56;4;2;
63915;PMS5003;50094;51.356;-0.196;2023-02-08T07:08:23;4;4;
63915;PMS5003;50094;51.356;-0.196;2023-02-08T07:10:49;4;4;
63915;PMS5003;50094;51.356;-0.196;2023-02-08T07:13:16;5;3;
63915;PMS5003;50094;51.356;-0.196;2023-02-08T07:15:44;1;1;
63915;PMS5003;50094;51.356;-0.196;2023-02-08T07:18:11;5;3;
63915;PMS5003;50094;51.356;-0.196;2023-02-08T07:20:38;4;3;
63915;PMS5003;50094;51.356;-0.196;2023-02-08T07:23:05;3;2;
63915;PMS5003;50094;51.356;-0.196;2023-02-08T07:25:32;6;4;
63915;PMS5003;50094;51.356;-0.196;2023-02-08T07:27:58;3;3;
63915;PMS5003;50094;51.356;-0.196;2023-02-08T07:30:25;5;5;
63915;PMS5003;50094;51.356;-0.196;2023-02-08T07:32:52;3;2;
63915;PMS5003;50094;51.356;-0.196;2023-02-08T07:35:19;4;3;
63915;PMS5003;50094;51.356;-0.196;2023-02-08T07:37:46;3;3;
63915;PMS5003;50094;51.356;-0.196;2023-02-08T07:40:13;4;4;
63915;PMS5003;50094;51.356;-0.196;2023-02-08T07:42:41;3;1;
63915;PMS5003;50094;51.356;-0.196;2023-02-08T07:45:08;5;3;
63915;PMS5003;50094;51.356;-0.196;2023-02-08T07:47:36;5;3;
63915;PMS5003;50094;51.356;-0.196;2023-02-08T07:50:03;2;2;
63915;PMS5003;50094;51.356;-0.196;2023-02-08T07:52:30;5;3;
63915;PMS5003;50094;51.356;-0.196;2023-02-08T07:54:58;7;7;
63915;PMS5003;50094;51.356;-0.196;2023-02-08T07:57:25;6;5;
63915;PMS5003;50094;51.356;-0.196;2023-02-08T07:59:52;7;6;
63915;PMS5003;50094;51.356;-0.196;2023-02-08T08:02:19;5;4;
63915;PMS5003;50094;51.356;-0.196;2023-02-08T08:04:46;2;2;
63915;PMS5003;50094;51.356;-0.196;2023-02-08T08:07:13;7;4;
63915;PMS5003;50094;51.356;-0.196;2023-02-08T08:09:40;5;5;
63915;PMS5003;50094;51.356;-0.196;2023-02-08T08:12:06;5;3;
63915;PMS5003;50094;51.356;-0.196;2023-02-08T08:14:33;4;4;
63915;PMS5003;50094;51.356;-0.196;2023-02-08T08:17:00;6;6;
63915;PMS5003;50094;51.356;-0.196;2023-02-08T08:19:27;7;6;
63915;PMS5003;50094;51.356;-0.196;2023-02-08T08:21:54;5;5;
63915;PMS5003;50094;51.356;-0.196;2023-02-08T08:24:21;5;5;
63915;PMS5003;50094;51.356;-0.196;2023-02-08T08:26:49;7;5;
63915;PMS5003;50094;51.356;-0.196;2023-02-08T08:29:16;6;5;
63915;PMS5003;50094;51.356;-0.196;2023-02-08T08:31:43;7;3;
63915;PMS5003;50094;51.356;-0.196;2023-02-08T08:34:09;8;7;
63915;PMS5003;50094;51.356;-0.196;2023-02-08T08:36:36;6;6;
63915;PMS5003;50094;51.356;-0.196;2023-02-08T08:39:04;5;5;
63915;PMS5003;50094;51.356;-0.196;2023-02-08T08:41:31;7;7;
63915;PMS5003;50094;51.356;-0.196;2023-02-08T08:43:59;4;4;
63915;PMS5003;50094;51.356;-0.196;2023-02-08T08:46:25;8;5;
63915;PMS5003;50094;51.356;-0.196;2023-02-08T08:48:52;6;4;
63915;PMS5003;50094;51.356;-0.196;2023-02-08T08:51:20;5;5;
63915;PMS5003;50094;51.356;-0.196;2023-02-08T08:53:47;7;6;
63915;PMS5003;50094;51.356;-0.196;2023-02-08T08:56:14;11;8;
63915;PMS5003;50094;51.356;-0.196;2023-02-08T08:58:42;8;4;
63915;PMS5003;50094;51.356;-0.196;2023-02-08T09:01:09;6;5;
63915;PMS5003;50094;51.356;-0.196;2023-02-08T09:03:36;5;5;
63915;PMS5003;50094;51.356;-0.196;2023-02-08T09:06:03;7;6;
63915;PMS5003;50094;51.356;-0.196;2023-02-08T09:08:30;6;5;
63915;PMS5003;50094;51.356;-0.196;2023-02-08T09:11:02;9;5;
63915;PMS5003;50094;51.356;-0.196;2023-02-08T09:13:30;9;7;
63915;PMS5003;50094;51.356;-0.196;2023-02-08T09:15:58;7;6;
63915;PMS5003;50094;51.356;-0.196;2023-02-08T09:18:29;9;4;
63915;PMS5003;50094;51.356;-0.196;2023-02-08T09:20:56;7;5;
63915;PMS5003;50094;51.356;-0.196;2023-02-08T09:23:23;8;7;
63915;PMS5003;50094;51.356;-0.196;2023-02-08T09:25:50;10;7;
63915;PMS5003;50094;51.356;-0.196;2023-02-08T09:28:17;6;5;
63915;PMS5003;50094;51.356;-0.196;2023-02-08T09:30:43;6;6;
63915;PMS5003;50094;51.356;-0.196;2023-02-08T09:33:11;9;8;
63915;PMS5003;50094;51.356;-0.196;2023-02-08T09:35:38;6;6;
63915;PMS5003;50094;51.356;-0.196;2023-02-08T09:38:05;6;6;
63915;PMS5003;50094;51.356;-0.196;2023-02-08T09:40:34;5;4;
63915;PMS5003;50094;51.356;-0.196;2023-02-08T09:43:08;8;6;
63915;PMS5003;50094;51.356;-0.196;2023-02-08T09:45:44;12;9;
63915;PMS5003;50094;51.356;-0.196;2023-02-08T09:48:17;7;4;
63915;PMS5003;50094;51.356;-0.196;2023-02-08T09:50:49;7;4;
63915;PMS5003;50094;51.356;-0.196;2023-02-08T09:53:23;9;5;
63915;PMS5003;50094;51.356;-0.196;2023-02-08T09:55:56;6;3;
63915;PMS5003;50094;51.356;-0.196;2023-02-08T09:58:26;5;5;
63915;PMS5003;50094;51.356;-0.196;2023-02-08T10:00:58;7;6;
63915;PMS5003;50094;51.356;-0.196;2023-02-08T10:03:28;6;6;
63915;PMS5003;50094;51.356;-0.196;2023-02-08T10:06:01;6;5;
63915;PMS5003;50094;51.356;-0.196;2023-02-08T10:08:29;3;3;
63915;PMS5003;50094;51.356;-0.196;2023-02-08T10:11:00;6;6;
63915;PMS5003;50094;51.356;-0.196;2023-02-08T10:13:42;8;4;
63915;PMS5003;50094;51.356;-0.196;2023-02-08T10:16:29;4;3;
63915;PMS5003;50094;51.356;-0.196;2023-02-08T10:19:13;7;5;
63915;PMS5003;50094;51.356;-0.196;2023-02-08T10:21:56;5;4;
63915;PMS5003;50094;51.356;-0.196;2023-02-08T10:24:40;7;6;
63915;PMS5003;50094;51.356;-0.196;2023-02-08T10:27:22;11;8;
63915;PMS5003;50094;51.356;-0.196;2023-02-08T10:30:02;8;8;
63915;PMS5003;50094;51.356;-0.196;2023-02-08T10:32:44;5;5;
63915;PMS5003;50094;51.356;-0.196;2023-02-08T10:35:22;7;5;
63915;PMS5003;50094;51.356;-0.196;2023-02-08T10:37:53;7;7;
63915;PMS5003;50094;51.356;-0.196;2023-02-08T10:40:24;11;9;
63915;PMS5003;50094;51.356;-0.196;2023-02-08T10:42:59;7;7;
63915;PMS5003;50094;51.356;-0.196;2023-02-08T10:45:36;10;6;
63915;PMS5003;50094;51.356;-0.196;2023-02-08T10:48:11;13;11;
63915;PMS5003;50094;51.356;-0.196;2023-02-08T10:50:43;8;6;
63915;PMS5003;50094;51.356;-0.196;2023-02-08T10:53:12;3;3;
63915;PMS5003;50094;51.356;-0.196;2023-02-08T10:55:41;8;7;
63915;PMS5003;50094;51.356;-0.196;2023-02-08T10:58:12;14;13;
63915;PMS5003;50094;51.356;-0.196;2023-02-08T11:00:43;4;4;
63915;PMS5003;50094;51.356;-0.196;2023-02-08T11:03:13;7;5;
63915;PMS5003;50094;51.356;-0.196;2023-02-08T11:05:43;11;11;
63915;PMS5003;50094;51.356;-0.196;2023-02-08T11:08:11;13;11;
63915;PMS5003;50094;51.356;-0.196;2023-02-08T11:10:40;8;6;
63915;PMS5003;50094;51.356;-0.196;2023-02-08T11:13:14;13;13;
63915;PMS5003;50094;51.356;-0.196;2023-02-08T11:15:44;11;11;
63915;PMS5003;50094;51.356;-0.196;2023-02-08T11:18:17;29;27;
63915;PMS5003;50094;51.356;-0.196;2023-02-08T11:20:48;23;22;
63915;PMS5003;50094;51.356;-0.196;2023-02-08T11:23:20;19;16;
63915;PMS5003;50094;51.356;-0.196;2023-02-08T11:25:50;16;15;
63915;PMS5003;50094;51.356;-0.196;2023-02-08T11:28:22;15;14;
63915;PMS5003;50094;51.356;-0.196;2023-02-08T11:30:53;9;8;
63915;PMS5003;50094;51.356;-0.196;2023-02-08T11:33:21;12;8;
63915;PMS5003;50094;51.356;-0.196;2023-02-08T11:35:52;25;25;
63915;PMS5003;50094;51.356;-0.196;2023-02-08T11:38:21;15;14;
63915;PMS5003;50094;51.356;-0.196;2023-02-08T11:40:48;18;14;
63915;PMS5003;50094;51.356;-0.196;2023-02-08T11:43:19;15;15;
63915;PMS5003;50094;51.356;-0.196;2023-02-08T11:45:48;20;18;
63915;PMS5003;50094;51.356;-0.196;2023-02-08T11:48:21;15;14;
63915;PMS5003;50094;51.356;-0.196;2023-02-08T11:50:52;12;12;
63915;PMS5003;50094;51.356;-0.196;2023-02-08T11:53:22;7;7;
63915;PMS5003;50094;51.356;-0.196;2023-02-08T11:56:03;6;6;
63915;PMS5003;50094;51.356;-0.196;2023-02-08T11:58:32;5;4;
63915;PMS5003;50094;51.356;-0.196;2023-02-08T12:01:01;9;7;
63915;PMS5003;50094;51.356;-0.196;2023-02-08T12:03:32;6;6;
63915;PMS5003;50094;51.356;-0.196;2023-02-08T12:06:07;6;6;
63915;PMS5003;50094;51.356;-0.196;2023-02-08T12:08:48;4;4;
63915;PMS5003;50094;51.356;-0.196;2023-02-08T12:11:28;6;5;
63915;PMS5003;50094;51.356;-0.196;2023-02-08T12:14:07;2;2;
63915;PMS5003;50094;51.356;-0.196;2023-02-08T12:16:48;5;5;
63915;PMS5003;50094;51.356;-0.196;2023-02-08T12:19:35;4;3;
63915;PMS5003;50094;51.356;-0.196;2023-02-08T12:22:17;3;3;
63915;PMS5003;50094;51.356;-0.196;2023-02-08T12:24:49;4;3;
63915;PMS5003;50094;51.356;-0.196;2023-02-08T12:27:27;5;5;
63915;PMS5003;50094;51.356;-0.196;2023-02-08T12:30:07;4;3;
63915;PMS5003;50094;51.356;-0.196;2023-02-08T12:32:52;4;4;
63915;PMS5003;50094;51.356;-0.196;2023-02-08T12:35:57;5;3;
63915;PMS5003;50094;51.356;-0.196;2023-02-08T12:38:39;5;4;
63915;PMS5003;50094;51.356;-0.196;2023-02-08T12:41:20;6;2;
63915;PMS5003;50094;51.356;-0.196;2023-02-08T12:43:53;3;3;
63915;PMS5003;50094;51.356;-0.196;2023-02-08T12:46:32;7;3;
63915;PMS5003;50094;51.356;-0.196;2023-02-08T12:49:19;5;3;
63915;PMS5003;50094;51.356;-0.196;2023-02-08T12:52:08;7;3;
63915;PMS5003;50094;51.356;-0.196;2023-02-08T12:54:47;3;2;
63915;PMS5003;50094;51.356;-0.196;2023-02-08T12:57:18;3;2;
63915;PMS5003;50094;51.356;-0.196;2023-02-08T12:59:50;7;2;
63915;PMS5003;50094;51.356;-0.196;2023-02-08T13:02:24;1;1;
63915;PMS5003;50094;51.356;-0.196;2023-02-08T13:04:56;5;4;
63915;PMS5003;50094;51.356;-0.196;2023-02-08T13:07:29;7;2;
63915;PMS5003;50094;51.356;-0.196;2023-02-08T13:10:01;4;2;
63915;PMS5003;50094;51.356;-0.196;2023-02-08T13:12:35;1;1;
63915;PMS5003;50094;51.356;-0.196;2023-02-08T13:15:06;3;3;
63915;PMS5003;50094;51.356;-0.196;2023-02-08T13:17:43;4;3;
63915;PMS5003;50094;51.356;-0.196;2023-02-08T13:20:19;4;4;
63915;PMS5003;50094;51.356;-0.196;2023-02-08T13:22:55;4;3;
63915;PMS5003;50094;51.356;-0.196;2023-02-08T13:25:28;1;1;
63915;PMS5003;50094;51.356;-0.196;2023-02-08T13:28:01;3;3;
63915;PMS5003;50094;51.356;-0.196;2023-02-08T13:30:30;3;3;
63915;PMS5003;50094;51.356;-0.196;2023-02-08T13:32:59;5;3;
63915;PMS5003;50094;51.356;-0.196;2023-02-08T13:35:32;3;3;
63915;PMS5003;50094;51.356;-0.196;2023-02-08T13:38:02;3;2;
63915;PMS5003;50094;51.356;-0.196;2023-02-08T13:40:31;6;4;
63915;PMS5003;50094;51.356;-0.196;2023-02-08T13:43:02;6;3;
63915;PMS5003;50094;51.356;-0.196;2023-02-08T13:45:33;3;3;
63915;PMS5003;50094;51.356;-0.196;2023-02-08T13:48:04;3;3;
63915;PMS5003;50094;51.356;-0.196;2023-02-08T13:50:41;6;4;
63915;PMS5003;50094;51.356;-0.196;2023-02-08T13:53:11;7;4;
63915;PMS5003;50094;51.356;-0.196;2023-02-08T13:55:42;5;5;
63915;PMS5003;50094;51.356;-0.196;2023-02-08T13:58:28;7;2;
63915;PMS5003;50094;51.356;-0.196;2023-02-08T14:01:28;5;3;
63915;PMS5003;50094;51.356;-0.196;2023-02-08T14:04:26;4;3;
63915;PMS5003;50094;51.356;-0.196;2023-02-08T14:07:00;6;6;
63915;PMS5003;50094;51.356;-0.196;2023-02-08T14:09:39;5;4;
63915;PMS5003;50094;51.356;-0.196;2023-02-08T14:12:15;5;5;
63915;PMS5003;50094;51.356;-0.196;2023-02-08T14:17:10;5;5;
63915;PMS5003;50094;51.356;-0.196;2023-02-08T14:19:44;3;3;
63915;PMS5003;50094;51.356;-0.196;2023-02-08T14:22:21;5;4;
63915;PMS5003;50094;51.356;-0.196;2023-02-08T14:24:58;5;4;
63915;PMS5003;50094;51.356;-0.196;2023-02-08T14:27:28;3;3;
63915;PMS5003;50094;51.356;-0.196;2023-02-08T14:30:00;5;4;
63915;PMS5003;50094;51.356;-0.196;2023-02-08T14:32:30;5;4;
63915;PMS5003;50094;51.356;-0.196;2023-02-08T14:35:02;7;5;
63915;PMS5003;50094;51.356;-0.196;2023-02-08T14:37:33;4;3;
63915;PMS5003;50094;51.356;-0.196;2023-02-08T14:40:42;8;4;
63915;PMS5003;50094;51.356;-0.196;2023-02-08T14:43:31;4;4;
63915;PMS5003;50094;51.356;-0.196;2023-02-08T14:47:08;7;4;
63915;PMS5003;50094;51.356;-0.196;2023-02-08T14:49:38;4;2;
63915;PMS5003;50094;51.356;-0.196;2023-02-08T14:52:09;5;4;
63915;PMS5003;50094;51.356;-0.196;2023-02-08T14:54:43;5;3;
63915;PMS5003;50094;51.356;-0.196;2023-02-08T14:57:18;5;4;
63915;PMS5003;50094;51.356;-0.196;2023-02-08T14:59:50;5;4;
63915;PMS5003;50094;51.356;-0.196;2023-02-08T15:02:20;8;3;
63915;PMS5003;50094;51.356;-0.196;2023-02-08T15:04:48;3;3;
63915;PMS5003;50094;51.356;-0.196;2023-02-08T15:07:18;4;4;
63915;PMS5003;50094;51.356;-0.196;2023-02-08T15:09:53;5;3;
63915;PMS5003;50094;51.356;-0.196;2023-02-08T15:12:22;6;3;
63915;PMS5003;50094;51.356;-0.196;2023-02-08T15:14:54;3;2;
63915;PMS5003;50094;51.356;-0.196;2023-02-08T15:17:27;4;1;
63915;PMS5003;50094;51.356;-0.196;2023-02-08T15:20:01;2;2;
63915;PMS5003;50094;51.356;-0.196;2023-02-08T15:22:33;4;4;
63915;PMS5003;50094;51.356;-0.196;2023-02-08T15:25:13;2;2;
63915;PMS5003;50094;51.356;-0.196;2023-02-08T15:27:47;5;4;
63915;PMS5003;50094;51.356;-0.196;2023-02-08T15:30:32;5;4;
63915;PMS5003;50094;51.356;-0.196;2023-02-08T15:33:02;7;4;
63915;PMS5003;50094;51.356;-0.196;2023-02-08T15:35:34;8;4;
63915;PMS5003;50094;51.356;-0.196;2023-02-08T15:38:02;6;1;
63915;PMS5003;50094;51.356;-0.196;2023-02-08T15:40:30;4;3;
63915;PMS5003;50094;51.356;-0.196;2023-02-08T15:43:03;2;1;
63915;PMS5003;50094;51.356;-0.196;2023-02-08T15:45:37;5;3;
63915;PMS5003;50094;51.356;-0.196;2023-02-08T15:48:04;6;4;
63915;PMS5003;50094;51.356;-0.196;2023-02-08T15:50:33;6;5;
63915;PMS5003;50094;51.356;-0.196;2023-02-08T15:53:01;3;3;
63915;PMS5003;50094;51.356;-0.196;2023-02-08T15:55:31;6;4;
63915;PMS5003;50094;51.356;-0.196;2023-02-08T15:58:02;5;3;
63915;PMS5003;50094;51.356;-0.196;2023-02-08T16:00:33;4;4;
63915;PMS5003;50094;51.356;-0.196;2023-02-08T16:03:04;2;2;
63915;PMS5003;50094;51.356;-0.196;2023-02-08T16:05:34;3;2;
63915;PMS5003;50094;51.356;-0.196;2023-02-08T16:08:02;5;4;
63915;PMS5003;50094;51.356;-0.196;2023-02-08T16:10:31;3;3;
63915;PMS5003;50094;51.356;-0.196;2023-02-08T16:13:00;8;3;
63915;PMS5003;50094;51.356;-0.196;2023-02-08T16:15:38;5;3;
63915;PMS5003;50094;51.356;-0.196;2023-02-08T16:18:29;4;2;
63915;PMS5003;50094;51.356;-0.196;2023-02-08T16:20:58;5;4;
63915;PMS5003;50094;51.356;-0.196;2023-02-08T16:23:27;7;4;
63915;PMS5003;50094;51.356;-0.196;2023-02-08T16:25:55;1;1;
63915;PMS5003;50094;51.356;-0.196;2023-02-08T16:28:34;4;2;
63915;PMS5003;50094;51.356;-0.196;2023-02-08T16:31:01;5;5;
63915;PMS5003;50094;51.356;-0.196;2023-02-08T16:33:31;4;3;
63915;PMS5003;50094;51.356;-0.196;2023-02-08T16:35:59;2;2;
63915;PMS5003;50094;51.356;-0.196;2023-02-08T16:38:26;5;5;
63915;PMS5003;50094;51.356;-0.196;2023-02-08T16:40:56;4;3;
63915;PMS5003;50094;51.356;-0.196;2023-02-08T16:43:24;6;3;
63915;PMS5003;50094;51.356;-0.196;2023-02-08T16:46:25;5;5;
63915;PMS5003;50094;51.356;-0.196;2023-02-08T16:48:52;7;5;
63915;PMS5003;50094;51.356;-0.196;2023-02-08T16:51:21;4;4;
63915;PMS5003;50094;51.356;-0.196;2023-02-08T16:53:52;4;2;
63915;PMS5003;50094;51.356;-0.196;2023-02-08T16:56:21;6;5;
63915;PMS5003;50094;51.356;-0.196;2023-02-08T16:58:49;3;3;